Time;durP1;ratioP1;P1;durP2;ratioP2;P2;SDS_P1;SDS_P2;PMS_P1;PMS_P2;Temp;Humidity;BMP_temperature;BMP_pressure;BME280_temperature;BME280_humidity;BME280_pressure;Samples;Min_cycle;Max_cycle;Signal;HPM_P1;HPM_P2
2022/06/30 00:07:49;;;;;;;28.60;14.80;;;;;;;20.01;100.00;100412.46;740585;1153;114833;-78
2022/06/30 00:22:51;;;;;;;21.73;12.40;;;;;;;20.03;100.00;100416.55;740425;1154;116535;-78
2022/06/30 00:37:53;;;;;;;18.08;12.05;;;;;;;19.82;100.00;100409.44;740292;1153;114954;-78
2022/06/30 00:52:57;;;;;;;19.27;12.80;;;;;;;19.73;100.00;100386.61;740103;1155;116389;-78
2022/06/30 01:08:01;;;;;;;20.90;13.83;;;;;;;19.63;100.00;100403.73;740170;1155;116185;-77
2022/06/30 01:23:05;;;;;;;19.40;13.13;;;;;;;19.49;100.00;100395.84;740074;1153;116191;-78
2022/06/30 01:38:08;;;;;;;20.25;11.80;;;;;;;19.45;100.00;100387.41;740041;1155;115458;-78
2022/06/30 01:53:10;;;;;;;20.05;14.05;;;;;;;19.49;100.00;100409.14;739792;1154;116418;-78
2022/06/30 02:08:13;;;;;;;20.65;13.00;;;;;;;19.47;100.00;100392.56;740397;1153;115241;-78
2022/06/30 02:23:16;;;;;;;50.93;30.93;;;;;;;19.45;100.00;100372.29;739959;1153;115997;-77
2022/06/30 02:38:19;;;;;;;18.23;13.15;;;;;;;19.39;100.00;100399.64;740031;1155;115325;-77
2022/06/30 02:53:21;;;;;;;14.70;11.28;;;;;;;19.40;100.00;100401.30;739784;1154;116309;-78
2022/06/30 03:08:24;;;;;;;14.75;9.73;;;;;;;19.74;100.00;100415.72;739891;1153;115262;-78
2022/06/30 03:23:26;;;;;;;18.55;10.05;;;;;;;20.08;100.00;100453.26;740303;1155;115970;-78
2022/06/30 03:38:29;;;;;;;17.70;11.93;;;;;;;20.33;100.00;100437.64;740129;1155;115395;-78
2022/06/30 03:53:31;;;;;;;13.70;10.58;;;;;;;20.54;100.00;100489.22;740350;1153;116082;-79
2022/06/30 04:08:33;;;;;;;16.65;11.15;;;;;;;20.88;100.00;100500.91;740363;1153;116164;-78
2022/06/30 04:23:35;;;;;;;15.73;10.50;;;;;;;21.01;100.00;100564.13;740889;1155;115389;-79
2022/06/30 04:38:38;;;;;;;15.30;9.60;;;;;;;21.35;100.00;100552.58;740305;1155;114744;-77
2022/06/30 04:53:40;;;;;;;18.68;11.50;;;;;;;21.65;100.00;100578.17;741042;1153;114755;-78
2022/06/30 05:08:43;;;;;;;15.33;10.65;;;;;;;22.01;100.00;100591.16;741740;1155;116151;-77
2022/06/30 05:26:28;;;;;;;13.05;9.65;;;;;;;22.15;100.00;100594.69;739911;1155;116081;-77
2022/06/30 05:39:08;;;;;;;16.78;10.30;;;;;;;22.27;100.00;100576.20;740114;1155;115508;-77
2022/06/30 05:54:10;;;;;;;12.13;9.18;;;;;;;22.01;100.00;100529.73;739776;1153;114914;-75
2022/06/30 06:09:12;;;;;;;14.35;10.70;;;;;;;21.48;100.00;100431.72;740506;1155;114638;-77
2022/06/30 06:24:16;;;;;;;19.03;12.48;;;;;;;21.26;100.00;100330.53;740580;1153;114857;-80
2022/06/30 06:39:19;;;;;;;18.03;12.15;;;;;;;21.66;100.00;100303.03;748493;1153;114874;-83
2022/06/30 06:54:21;;;;;;;14.55;11.08;;;;;;;22.58;100.00;100382.30;742460;1155;115804;-85
2022/06/30 07:09:24;;;;;;;13.27;9.10;;;;;;;23.74;100.00;100401.76;740920;1154;116291;-76
2022/06/30 07:24:27;;;;;;;11.93;8.38;;;;;;;24.80;100.00;100394.66;739931;1153;115785;-72
2022/06/30 07:39:29;;;;;;;9.85;8.30;;;;;;;25.24;100.00;100346.97;740201;1155;114683;-75
2022/06/30 07:54:32;;;;;;;9.60;8.00;;;;;;;25.23;100.00;100332.75;740075;1153;116054;-73
2022/06/30 08:09:35;;;;;;;9.85;8.53;;;;;;;26.47;100.00;100340.02;740724;1153;114855;-74
2022/06/30 08:24:37;;;;;;;10.65;9.53;;;;;;;27.27;100.00;100356.25;739998;1155;115061;-72
2022/06/30 08:55:03;;;;;;;11.63;8.93;;;;;;;27.75;99.42;100308.22;740334;1153;115414;-73
2022/06/30 09:10:07;;;;;;;10.83;9.10;;;;;;;28.46;98.56;100296.69;740817;1155;115403;-78
2022/06/30 09:25:12;;;;;;;8.00;7.20;;;;;;;29.40;96.76;100299.92;740583;1155;115396;-75
2022/06/30 09:40:27;;;;;;;8.13;7.30;;;;;;;31.24;90.65;100314.28;740555;1154;114832;-75
2022/06/30 09:55:44;;;;;;;6.45;5.85;;;;;;;32.40;83.29;100301.70;740330;1155;115610;-78
2022/06/30 10:10:47;;;;;;;7.73;6.45;;;;;;;32.40;78.35;100300.88;740298;1155;115902;-76
2022/06/30 10:25:51;;;;;;;9.48;6.10;;;;;;;33.08;77.29;100291.16;740998;1155;114467;-75
2022/06/30 10:41:18;;;;;;;7.28;6.55;;;;;;;33.59;76.10;100303.41;740948;1153;115571;-73
2022/06/30 10:56:22;;;;;;;7.58;6.83;;;;;;;34.18;76.30;100304.06;743118;1155;115030;-71
2022/06/30 11:11:25;;;;;;;10.48;7.03;;;;;;;34.41;74.44;100283.36;741413;1153;114371;-71
2022/06/30 11:41:55;;;;;;;8.48;7.68;;;;;;;35.51;72.99;100236.80;740826;1155;115765;-71
2022/06/30 11:56:58;;;;;;;8.93;8.15;;;;;;;35.16;70.60;100221.63;739945;1154;115786;-71
2022/06/30 12:12:03;;;;;;;9.43;8.53;;;;;;;35.47;70.06;100195.69;740651;1153;115332;-72
2022/06/30 12:27:06;;;;;;;9.80;8.73;;;;;;;36.02;68.50;100193.95;740896;1155;115293;-71
2022/06/30 12:42:11;;;;;;;8.80;8.00;;;;;;;36.02;68.12;100180.30;740900;1155;114306;-71
2022/06/30 12:57:15;;;;;;;9.65;8.65;;;;;;;36.32;67.29;100170.56;740155;1155;115568;-71
2022/06/30 13:12:18;;;;;;;9.25;8.35;;;;;;;36.96;66.20;100159.36;740618;1155;115283;-70
2022/06/30 13:27:21;;;;;;;10.18;9.18;;;;;;;37.09;65.25;100157.64;740132;1153;115554;-69
2022/06/30 13:42:24;;;;;;;9.78;8.80;;;;;;;37.28;65.18;100143.71;740108;1155;115921;-70
2022/06/30 13:57:28;;;;;;;11.67;8.97;;;;;;;37.20;65.53;100139.01;743472;1155;115161;-71
2022/06/30 14:12:31;;;;;;;10.33;9.20;;;;;;;37.17;66.16;100115.05;741071;1153;115118;-71
2022/06/30 14:27:35;;;;;;;9.80;8.33;;;;;;;37.42;65.84;100097.09;740765;1155;116011;-71
2022/06/30 14:42:47;;;;;;;11.35;8.88;;;;;;;36.82;65.43;100095.83;740980;1154;115406;-70
2022/06/30 14:57:52;;;;;;;15.85;10.43;;;;;;;37.07;65.16;100082.55;740155;1153;115905;-72
2022/06/30 15:12:55;;;;;;;9.73;8.45;;;;;;;36.75;65.47;100081.81;739918;1155;115819;-72
2022/06/30 15:28:00;;;;;;;10.75;8.45;;;;;;;36.30;66.18;100069.07;740194;1153;114878;-72
2022/06/30 15:43:05;;;;;;;10.58;9.55;;;;;;;36.30;66.61;100049.96;740339;1153;114787;-71
2022/06/30 15:58:07;;;;;;;9.63;8.37;;;;;;;36.36;67.32;100045.19;740507;1155;115305;-72
2022/06/30 16:13:12;;;;;;;10.10;9.03;;;;;;;36.11;68.12;100044.72;740776;1155;114575;-71
2022/06/30 16:28:16;;;;;;;9.65;7.68;;;;;;;35.85;69.27;100034.48;740475;1153;115818;-72
2022/06/30 16:43:21;;;;;;;10.28;9.23;;;;;;;35.66;70.30;100012.81;741102;1154;114820;-72
2022/06/30 16:58:25;;;;;;;9.50;8.50;;;;;;;35.07;72.33;100013.62;741115;1153;115713;-72
2022/06/30 17:13:29;;;;;;;14.00;12.48;;;;;;;34.09;74.78;99998.38;740674;1155;114346;-71
2022/06/30 17:28:33;;;;;;;13.65;10.78;;;;;;;33.14;78.14;100018.30;740400;1155;115001;-73
2022/06/30 17:43:37;;;;;;;15.18;12.20;;;;;;;32.73;79.09;99997.13;741100;1154;114706;-73
2022/06/30 17:58:40;;;;;;;16.33;11.83;;;;;;;32.24;80.72;100021.52;740620;1155;115739;-72
2022/06/30 18:13:49;;;;;;;17.83;13.53;;;;;;;31.89;81.48;100003.67;741013;1155;115519;-72
2022/06/30 18:28:52;;;;;;;11.65;9.10;;;;;;;31.50;81.86;99983.60;740237;1155;114744;-72
2022/06/30 18:44:00;;;;;;;182.28;20.10;;;;;;;29.46;69.52;100334.02;740735;1154;115906;-73
2022/06/30 18:59:06;;;;;;;8.05;4.20;;;;;;;20.75;100.00;100318.56;740223;1153;116309;-72
2022/06/30 19:14:10;;;;;;;15.93;9.15;;;;;;;21.42;100.00;100294.62;741033;1155;115046;-71
2022/06/30 19:29:14;;;;;;;8.70;4.93;;;;;;;22.13;100.00;100297.55;740852;1155;115978;-72
2022/06/30 19:44:21;;;;;;;9.58;4.38;;;;;;;21.57;100.00;100234.89;740640;1154;115070;-71
2022/06/30 19:59:24;;;;;;;7.75;3.85;;;;;;;21.82;100.00;100261.72;740363;1153;115785;-71
2022/06/30 20:14:29;;;;;;;7.05;4.00;;;;;;;22.05;100.00;100233.70;740757;1155;114821;-72
2022/06/30 20:29:35;;;;;;;6.55;3.83;;;;;;;22.15;100.00;100187.84;740276;1155;115910;-72
2022/06/30 20:44:41;;;;;;;6.95;3.95;;;;;;;22.66;100.00;100186.09;740406;1153;115345;-72
2022/06/30 20:59:44;;;;;;;9.40;4.63;;;;;;;22.85;100.00;100178.95;740201;1152;115233;-70
2022/06/30 21:14:47;;;;;;;5.93;4.20;;;;;;;22.68;100.00;100174.14;740499;1155;115151;-73
2022/06/30 21:29:50;;;;;;;10.70;4.35;;;;;;;22.55;100.00;100192.95;740324;1153;114363;-71
2022/06/30 21:44:53;;;;;;;11.55;5.53;;;;;;;22.64;100.00;100182.83;740364;1154;116094;-70
2022/06/30 21:59:56;;;;;;;9.33;4.70;;;;;;;22.55;100.00;100187.61;740299;1153;115859;-71
2022/06/30 22:14:59;;;;;;;10.57;4.53;;;;;;;22.70;100.00;100184.61;740626;1153;115185;-72
2022/06/30 22:30:01;;;;;;;10.30;5.60;;;;;;;22.71;100.00;100172.89;739874;1153;116146;-71
2022/06/30 22:45:05;;;;;;;7.23;4.73;;;;;;;22.66;100.00;100154.01;740386;1155;115521;-71
2022/06/30 23:00:07;;;;;;;11.98;6.68;;;;;;;22.52;100.00;100155.98;740212;1155;115291;-72
2022/06/30 23:15:10;;;;;;;9.35;5.68;;;;;;;22.34;100.00;100149.48;739831;1153;115992;-71
2022/06/30 23:30:12;;;;;;;9.08;4.73;;;;;;;22.20;100.00;100154.11;740047;1153;115239;-71
2022/06/30 23:45:15;;;;;;;9.05;5.60;;;;;;;22.32;100.00;100188.97;740027;1154;115423;-71
